LFBDLFBH

Guest
Details From LFBD - Bordeaux Merignac
To LFBH - La Rochelle Laleu
Flight Number -
Tags generated
Created
Modified
Stats Distance 84 nm / 155 km
Max Altitude 6,700 ft / 2,042 m
Waypoints 5
Social Downloads 7
Likes 0
Share

Download

Looking for another format? Having issues loading an existing format? Contact us
Advertisement - Login to hide

Notes

Basic altitude profile: - Ascent Rate: 2500ft/min - Ascent Speed: 250kts - Cruise Altitude: 35000ft - Cruise Speed: 420kts - Descent Rate: 1500ft/min - Descent Speed: 250kts Options: - Use NATs: yes - Use PACOTS: yes - Use low airways: yes - Use high airways: yes

Route

LFBD ROYAN A25 OLERO LFBH

ID Type Via Altitude (ft/m) Position (lat/lon) Dist (leg/tot) Name
O LFBD APT - 0 / 0 44.82876 / -0.71476 - / 0 nm Bordeaux Merignac
ROYAN FIX - 6,700 / 2,042 45.66667 / -1.03667 52 / 52 nm
MAREN FIX A25 (AWY-LO) 6,500 / 1,981 45.73333 / -1.06167 4 / 56 nm
OLERO FIX A25 (AWY-LO) 6,500 / 1,981 45.96972 / -1.15028 14 / 70 nm
O LFBH APT - 0 / 0 46.17924 / -1.19641 12 / 83 nm La Rochelle Laleu

Altitude Profile

Advertisement - Login to hide

LFBD

Details ICAO LFBD (BOD)
Name Bordeaux Merignac
Region France
Timezone Europe/Paris (UTC+2.0)
Stats Elevation 166 ft / 51 m (AMSL)
Location 44.828700° -0.714790°
Runways 2
Magnetic Variation 0.662° E

METAR

LFBD 301900Z AUTO 06004KT 9999 // NSC 23/17 Q1023

Decode

TAF

TAF LFBD 301700Z 3018/0124 07005KT CAVOK TX33/0115Z TN17/0106Z= TAF LFJL 301700Z 3018/0118 VRB03KT 9999 SCT040

Decode

Departure Runways

ID Width Length Bearing (true/mag) Surface Threshold Overrun Markings Lighting
05 148 ft / 45 m 10,181 ft / 3,103 m 45.35° / 44.69° ASPHALT 0 ft / 0 m 1,161 ft / 354 m APP CENTERLINE EDGE THRESHOLD TDZ REIL-OMNI
11 148 ft / 45 m 7,927 ft / 2,416 m 106.46° / 105.80° ASPHALT 0 ft / 0 m 1,204 ft / 367 m APP EDGE THRESHOLD TDZ REIL-OMNI
23 148 ft / 45 m 10,181 ft / 3,103 m 225.37° / 224.71° ASPHALT 0 ft / 0 m 1,289 ft / 393 m PREC-APP CENTERLINE EDGE THRESHOLD CALVERT-ILS TDZ REIL-OMNI
29 148 ft / 45 m 7,927 ft / 2,416 m 286.48° / 285.82° ASPHALT 0 ft / 0 m 1,204 ft / 367 m PREC-APP EDGE THRESHOLD TDZ REIL-OMNI

LFBH

Details ICAO LFBH (LRH)
Name La Rochelle Laleu
Region France
Timezone Europe/Paris (UTC+2.0)
Stats Elevation 74 ft / 23 m (AMSL)
Location 46.179200° -1.196360°
Runways 1
Magnetic Variation 0.452° E

METAR

LFBH 301900Z AUTO 02003KT CAVOK 20/16 Q1024 NOSIG

Decode

TAF

TAF TAF LFBH 301700Z 3018/0118 32004KT CAVOK

Decode

Destination Runways

ID Width Length Bearing (true/mag) Surface Threshold Overrun Markings Lighting
09 148 ft / 45 m 7,383 ft / 2,250 m 92.43° / 91.98° ASPHALT 1,033 ft / 315 m 0 ft / 0 m APP EDGE THRESHOLD ALSF-I REIL-OMNI
27 148 ft / 45 m 7,383 ft / 2,250 m 272.45° / 272.00° ASPHALT 1,532 ft / 467 m 0 ft / 0 m PREC-APP EDGE THRESHOLD MALS REIL-OMNI

Approach Navaids

Runway Type Ident Frequency Range Bearing (true/mag) Slope Elevation
27 LOC-ILS RL 109.55 MHz 18 nm / 33 km 272.44° / 271.99 ° - 74 ft / 23 m (AMSL)
27 GS RL 109.55 MHz 10 nm / 19 km 272.44° / 271.99 ° 3.20° 74 ft / 23 m (AMSL)
27 DME RL 109.55 MHz 18 nm / 33 km - - 66 ft / 20 m (AMSL)

Popular Alternatives